createdAt,value
2023-04-24T00:00:53.509Z,7.67
2023-04-24T00:03:23.376Z,7.90
2023-04-24T00:05:51.951Z,7.83
2023-04-24T00:08:19.713Z,8.10
2023-04-24T00:10:47.914Z,8.23
2023-04-24T00:13:15.602Z,7.10
2023-04-24T00:15:44.770Z,7.40
2023-04-24T00:18:12.608Z,7.20
2023-04-24T00:20:40.823Z,7.37
2023-04-24T00:23:08.547Z,7.67
2023-04-24T00:25:36.402Z,6.83
2023-04-24T00:28:04.147Z,7.57
2023-04-24T00:30:31.929Z,7.90
2023-04-24T00:33:01.281Z,7.50
2023-04-24T00:35:29.035Z,8.20
2023-04-24T00:37:57.559Z,7.40
2023-04-24T00:40:25.248Z,7.80
2023-04-24T00:42:53.172Z,7.37
2023-04-24T00:45:21.623Z,7.60
2023-04-24T00:47:50.250Z,7.90
2023-04-24T00:50:20.348Z,8.10
2023-04-24T00:52:48.304Z,7.90
2023-04-24T00:55:16.326Z,8.17
2023-04-24T00:57:44.890Z,7.63
2023-04-24T01:00:13.136Z,8.17
2023-04-24T01:02:45.062Z,7.70
2023-04-24T01:05:14.137Z,8.37
2023-04-24T01:07:46.445Z,7.60
2023-04-24T01:10:15.352Z,8.60
2023-04-24T01:12:43.114Z,7.57
2023-04-24T01:15:13.657Z,8.10
2023-04-24T01:17:43.738Z,7.93
2023-04-24T01:20:13.004Z,8.10
2023-04-24T01:22:44.078Z,7.60
2023-04-24T01:25:12.014Z,8.37
2023-04-24T01:27:39.642Z,8.40
2023-04-24T01:30:09.692Z,7.60
2023-04-24T01:32:38.326Z,7.87
2023-04-24T01:35:07.068Z,8.47
2023-04-24T01:37:35.079Z,8.57
2023-04-24T01:40:05.081Z,8.40
2023-04-24T01:42:33.069Z,7.77
2023-04-24T01:45:01.393Z,8.60
2023-04-24T01:47:29.337Z,8.50
2023-04-24T01:50:00.404Z,7.93
2023-04-24T01:52:29.981Z,8.67
2023-04-24T01:54:57.708Z,8.13
2023-04-24T01:57:27.325Z,8.40
2023-04-24T01:59:58.221Z,8.57
2023-04-24T02:02:28.560Z,8.40
2023-04-24T02:04:58.689Z,8.10
2023-04-24T02:07:26.385Z,8.77
2023-04-24T02:09:54.666Z,8.60
2023-04-24T02:12:22.682Z,8.93
2023-04-24T02:14:54.465Z,8.90
2023-04-24T02:17:22.293Z,8.80
2023-04-24T02:19:50.461Z,9.43
2023-04-24T02:22:18.718Z,9.43
2023-04-24T02:24:46.409Z,8.70
2023-04-24T02:27:17.055Z,8.63
2023-04-24T02:29:46.750Z,9.20
2023-04-24T02:32:16.650Z,8.80
2023-04-24T02:34:44.918Z,9.37
2023-04-24T02:37:13.833Z,8.80
2023-04-24T02:39:41.697Z,8.90
2023-04-24T02:42:10.081Z,9.43
2023-04-24T02:44:38.015Z,8.83
2023-04-24T02:47:05.832Z,9.40
2023-04-24T02:49:34.937Z,9.07
2023-04-24T02:52:02.811Z,9.20
2023-04-24T02:54:30.532Z,8.37
2023-04-24T02:56:58.772Z,9.20
2023-04-24T02:59:28.321Z,8.10
2023-04-24T03:01:56.108Z,8.70
2023-04-24T03:04:24.170Z,8.30
2023-04-24T03:06:53.812Z,8.40
2023-04-24T03:09:21.989Z,9.00
2023-04-24T03:11:50.365Z,8.30
2023-04-24T03:14:18.199Z,8.43
2023-04-24T03:16:47.265Z,9.27
2023-04-24T03:19:14.954Z,8.10
2023-04-24T03:21:56.047Z,8.27
2023-04-24T03:24:24.197Z,8.70
2023-04-24T03:26:52.334Z,8.53
2023-04-24T03:29:38.423Z,8.23
2023-04-24T03:32:06.194Z,8.77
2023-04-24T03:34:34.544Z,7.93
2023-04-24T03:37:04.762Z,8.03
2023-04-24T03:39:35.134Z,7.53
2023-04-24T03:42:05.404Z,7.83
2023-04-24T03:44:44.980Z,8.13
2023-04-24T03:47:13.035Z,8.03
2023-04-24T03:49:41.186Z,8.47
2023-04-24T03:52:12.032Z,8.77
2023-04-24T03:54:40.345Z,9.43
2023-04-24T03:57:08.301Z,8.50
2023-04-24T03:59:38.476Z,7.93
2023-04-24T04:02:18.404Z,7.73
2023-04-24T04:04:46.458Z,7.67
2023-04-24T04:07:15.772Z,8.33
2023-04-24T04:09:43.990Z,8.13
2023-04-24T04:12:11.842Z,8.40
2023-04-24T04:14:40.776Z,7.97
2023-04-24T04:17:08.505Z,7.80
2023-04-24T04:19:36.363Z,8.70
2023-04-24T04:22:04.529Z,8.20
2023-04-24T04:24:42.433Z,7.20
2023-04-24T04:27:11.813Z,8.30
2023-04-24T04:29:48.652Z,8.27
2023-04-24T04:32:17.987Z,8.50
2023-04-24T04:34:46.367Z,7.27
2023-04-24T04:37:15.359Z,8.07
2023-04-24T04:40:12.456Z,8.00
2023-04-24T04:42:49.559Z,8.13
2023-04-24T04:45:19.827Z,7.77
2023-04-24T04:48:10.070Z,8.20
2023-04-24T04:50:38.749Z,7.90
2023-04-24T04:53:09.465Z,7.53
2023-04-24T04:55:41.305Z,8.33
2023-04-24T04:58:12.370Z,8.07
2023-04-24T05:00:40.112Z,7.13
2023-04-24T05:03:21.203Z,7.30
2023-04-24T05:05:56.218Z,7.20
2023-04-24T05:08:28.071Z,7.20
2023-04-24T05:11:19.655Z,7.10
2023-04-24T05:13:49.013Z,6.63
2023-04-24T05:16:20.939Z,6.13
2023-04-24T05:18:50.403Z,6.60
2023-04-24T05:21:22.103Z,6.60
2023-04-24T05:23:53.024Z,5.97
2023-04-24T05:26:36.606Z,6.13
2023-04-24T05:29:06.369Z,6.43
2023-04-24T05:31:34.378Z,6.03
2023-04-24T05:34:02.207Z,5.77
2023-04-24T05:36:30.256Z,5.17
2023-04-24T05:38:57.994Z,5.03
2023-04-24T05:41:27.025Z,5.20
2023-04-24T05:43:56.580Z,4.70
2023-04-24T05:46:24.651Z,5.10
2023-04-24T05:48:52.319Z,4.30
2023-04-24T05:51:20.372Z,4.30
2023-04-24T05:53:48.260Z,4.50
2023-04-24T05:56:16.544Z,3.60
2023-04-24T05:58:44.612Z,3.30
2023-04-24T06:01:15.075Z,3.30
2023-04-24T06:03:46.520Z,3.33
2023-04-24T06:06:14.718Z,3.17
2023-04-24T06:08:43.447Z,2.90
2023-04-24T06:11:12.133Z,2.70
2023-04-24T06:13:40.502Z,2.77
2023-04-24T06:16:36.155Z,2.90
2023-04-24T06:19:11.678Z,2.17
2023-04-24T06:21:39.829Z,2.97
2023-04-24T06:24:07.553Z,2.40
2023-04-24T06:26:35.333Z,2.27
2023-04-24T06:29:03.584Z,2.40
2023-04-24T06:31:31.347Z,2.43
2023-04-24T06:34:00.876Z,2.67
2023-04-24T06:36:32.318Z,2.30
2023-04-24T06:39:00.275Z,2.00
2023-04-24T06:41:28.018Z,2.80
2023-04-24T06:43:55.891Z,2.10
2023-04-24T06:46:24.823Z,1.90
2023-04-24T06:48:52.974Z,1.87
2023-04-24T06:51:22.127Z,2.00
2023-04-24T06:53:50.742Z,2.13
2023-04-24T06:56:18.444Z,1.80
2023-04-24T06:58:46.486Z,1.93
2023-04-24T07:01:14.225Z,1.73
2023-04-24T07:03:43.104Z,1.53
2023-04-24T07:06:12.253Z,1.70
2023-04-24T07:08:42.826Z,1.87
2023-04-24T07:11:10.680Z,1.60
2023-04-24T07:13:42.614Z,1.43
2023-04-24T07:16:10.683Z,1.73
2023-04-24T07:18:39.112Z,1.70
2023-04-24T07:21:07.346Z,1.60
2023-04-24T07:23:35.150Z,1.80
2023-04-24T07:26:04.512Z,2.00
2023-04-24T07:28:32.922Z,1.40
2023-04-24T07:31:00.996Z,1.30
2023-04-24T07:33:28.935Z,1.30
2023-04-24T07:35:57.411Z,1.30
2023-04-24T07:38:27.079Z,1.27
2023-04-24T07:40:54.812Z,1.40
2023-04-24T07:43:25.784Z,1.33
2023-04-24T07:45:53.574Z,1.23
2023-04-24T07:48:23.009Z,1.20
2023-04-24T07:50:51.160Z,1.20
2023-04-24T07:53:18.841Z,3.20
2023-04-24T07:55:46.602Z,1.30
2023-04-24T07:58:14.637Z,1.10
2023-04-24T08:00:43.670Z,1.30
2023-04-24T08:03:11.696Z,1.00
2023-04-24T08:05:40.996Z,1.57
2023-04-24T08:08:09.266Z,1.60
2023-04-24T08:10:37.321Z,1.37
2023-04-24T08:13:05.091Z,1.50
2023-04-24T08:15:32.844Z,1.50
2023-04-24T08:18:01.961Z,1.30
2023-04-24T08:20:30.159Z,1.23
2023-04-24T08:22:58.374Z,1.20
2023-04-24T08:25:26.557Z,1.70
2023-04-24T08:27:54.447Z,1.60
2023-04-24T08:30:22.391Z,1.20
2023-04-24T08:32:50.120Z,1.70
2023-04-24T08:35:19.980Z,1.93
2023-04-24T08:37:47.995Z,1.33
2023-04-24T08:40:16.715Z,1.20
2023-04-24T08:42:45.839Z,1.07
2023-04-24T08:45:14.558Z,1.50
2023-04-24T08:47:43.109Z,1.07
2023-04-24T08:50:11.934Z,1.00
2023-04-24T08:52:41.551Z,0.90
2023-04-24T08:55:09.598Z,1.60
2023-04-24T08:57:41.036Z,0.90
2023-04-24T09:00:11.959Z,1.30
2023-04-24T09:02:42.166Z,1.00
2023-04-24T09:05:10.952Z,1.10
2023-04-24T09:07:41.541Z,1.20
2023-04-24T09:10:11.397Z,1.17
2023-04-24T09:12:39.073Z,1.17
2023-04-24T09:15:09.096Z,1.47
2023-04-24T09:17:37.348Z,1.10
2023-04-24T09:20:05.493Z,2.30
2023-04-24T09:22:33.680Z,1.00
2023-04-24T09:25:04.940Z,1.10
2023-04-24T09:27:34.363Z,1.23
2023-04-24T09:30:03.008Z,2.07
2023-04-24T09:32:32.732Z,1.90
2023-04-24T09:35:09.813Z,1.20
2023-04-24T09:37:37.901Z,1.63
2023-04-24T09:40:09.711Z,1.40
2023-04-24T09:42:38.959Z,1.67
2023-04-24T09:45:15.077Z,1.60
2023-04-24T09:47:43.740Z,1.70
2023-04-24T09:50:12.375Z,2.20
2023-04-24T09:52:42.037Z,1.90
2023-04-24T09:55:13.286Z,2.43
2023-04-24T09:57:51.030Z,1.13
2023-04-24T10:00:26.141Z,3.07
2023-04-24T10:02:57.954Z,1.30
2023-04-24T10:05:26.554Z,1.00
2023-04-24T10:07:58.034Z,1.10
2023-04-24T10:10:26.094Z,1.30
2023-04-24T10:12:55.560Z,1.00
2023-04-24T10:15:23.695Z,1.30
2023-04-24T10:17:53.593Z,1.23
2023-04-24T10:20:22.975Z,1.73
2023-04-24T10:22:52.527Z,0.97
2023-04-24T10:25:21.640Z,1.00
2023-04-24T10:27:50.222Z,1.37
2023-04-24T10:30:19.868Z,1.10
2023-04-24T10:32:48.039Z,1.47
2023-04-24T10:35:17.313Z,1.10
2023-04-24T10:37:47.040Z,1.33
2023-04-24T10:40:19.138Z,1.70
2023-04-24T10:42:49.966Z,1.20
2023-04-24T10:45:23.206Z,1.47
2023-04-24T10:48:05.023Z,1.20
2023-04-24T10:50:43.903Z,1.10
2023-04-24T10:53:14.703Z,1.27
2023-04-24T10:55:46.264Z,1.50
2023-04-24T10:58:14.333Z,1.80
2023-04-24T11:00:43.669Z,1.30
2023-04-24T11:03:24.950Z,1.60
2023-04-24T11:05:53.920Z,1.40
2023-04-24T11:08:31.626Z,1.00
2023-04-24T11:11:00.956Z,2.63
2023-04-24T11:13:29.805Z,1.77
2023-04-24T11:16:16.035Z,1.33
2023-04-24T11:18:46.287Z,1.60
2023-04-24T11:21:14.969Z,1.50
2023-04-24T11:23:43.290Z,3.13
2023-04-24T11:26:15.303Z,1.70
2023-04-24T11:28:49.764Z,1.80
2023-04-24T11:31:38.033Z,1.33
2023-04-24T11:34:09.807Z,1.60
2023-04-24T11:36:38.798Z,3.00
2023-04-24T11:39:07.201Z,3.80
2023-04-24T11:41:35.875Z,4.87
2023-04-24T11:44:05.019Z,10.50
2023-04-24T11:46:33.934Z,38.87
2023-04-24T11:49:03.296Z,40.63
2023-04-24T11:51:40.609Z,33.77
2023-04-24T11:54:16.500Z,42.07
2023-04-24T11:56:46.642Z,13.50
2023-04-24T11:59:14.411Z,9.00
2023-04-24T12:01:46.601Z,6.60
2023-04-24T12:04:16.970Z,6.80
2023-04-24T12:06:59.635Z,5.60
2023-04-24T12:09:27.404Z,2.70
2023-04-24T12:11:55.456Z,2.00
2023-04-24T12:14:23.369Z,1.97
2023-04-24T12:16:51.458Z,2.30
2023-04-24T12:19:22.476Z,2.20
2023-04-24T12:22:01.571Z,2.17
2023-04-24T12:24:29.418Z,2.13
2023-04-24T12:26:57.325Z,1.40
2023-04-24T12:29:25.666Z,2.20
2023-04-24T12:31:53.576Z,1.67
2023-04-24T12:34:23.000Z,1.57
2023-04-24T12:36:51.188Z,1.47
2023-04-24T12:39:19.715Z,1.40
2023-04-24T12:41:54.223Z,1.70
2023-04-24T12:44:21.912Z,1.37
2023-04-24T12:46:49.646Z,1.43
2023-04-24T12:49:17.888Z,1.50
2023-04-24T12:51:46.859Z,1.00
2023-04-24T12:54:14.796Z,1.57
2023-04-24T12:56:42.909Z,1.20
2023-04-24T12:59:10.717Z,1.17
2023-04-24T13:01:38.429Z,1.50
2023-04-24T13:04:06.817Z,1.50
2023-04-24T13:06:34.597Z,1.40
2023-04-24T13:09:04.434Z,1.23
2023-04-24T13:11:32.539Z,1.27
2023-04-24T13:14:00.816Z,1.00
2023-04-24T13:16:28.671Z,1.00
2023-04-24T13:18:56.583Z,1.10
2023-04-24T13:21:24.656Z,1.00
2023-04-24T13:23:53.035Z,1.50
2023-04-24T13:26:22.815Z,2.27
2023-04-24T13:28:50.536Z,1.13
2023-04-24T13:31:19.168Z,1.33
2023-04-24T13:33:47.192Z,1.20
2023-04-24T13:36:15.204Z,1.20
2023-04-24T13:38:42.882Z,1.07
2023-04-24T13:41:11.107Z,0.87
2023-04-24T13:43:40.121Z,1.30
2023-04-24T13:46:07.837Z,1.00
2023-04-24T13:48:35.780Z,1.40
2023-04-24T13:51:03.665Z,1.20
2023-04-24T13:53:31.266Z,1.40
2023-04-24T13:56:00.310Z,1.60
2023-04-24T13:58:28.049Z,1.10
2023-04-24T14:00:57.051Z,1.50
2023-04-24T14:03:25.377Z,1.10
2023-04-24T14:05:53.154Z,1.43
2023-04-24T14:08:21.175Z,2.00
2023-04-24T14:10:48.889Z,1.50
2023-04-24T14:13:18.711Z,2.10
2023-04-24T14:15:46.757Z,1.90
2023-04-24T14:18:16.234Z,1.90
2023-04-24T14:20:43.981Z,1.80
2023-04-24T14:23:11.640Z,1.30
2023-04-24T14:25:39.762Z,1.63
2023-04-24T14:28:08.133Z,1.60
2023-04-24T14:30:38.341Z,2.00
2023-04-24T14:33:06.462Z,1.50
2023-04-24T14:35:36.144Z,1.47
2023-04-24T14:38:04.135Z,1.70
2023-04-24T14:40:56.302Z,1.73
2023-04-24T14:43:20.659Z,2.60
2023-04-24T14:45:48.549Z,2.47
2023-04-24T14:48:17.417Z,1.60
2023-04-24T14:50:46.958Z,1.40
2023-04-24T14:53:17.626Z,1.50
2023-04-24T14:55:45.245Z,1.13
2023-04-24T14:58:12.987Z,1.70
2023-04-24T15:00:40.996Z,1.47
2023-04-24T15:03:09.895Z,1.40
2023-04-24T15:05:38.288Z,1.47
2023-04-24T15:08:07.944Z,1.60
2023-04-24T15:10:36.101Z,1.47
2023-04-24T15:13:03.860Z,1.87
2023-04-24T15:15:32.008Z,1.40
2023-04-24T15:17:59.751Z,2.53
2023-04-24T15:20:27.445Z,1.60
2023-04-24T15:22:57.152Z,1.80
2023-04-24T15:25:26.148Z,1.70
2023-04-24T15:27:53.956Z,1.50
2023-04-24T15:30:21.801Z,1.83
2023-04-24T15:32:49.872Z,2.07
2023-04-24T15:35:18.444Z,1.63
2023-04-24T15:37:48.363Z,2.00
2023-04-24T15:40:16.616Z,1.80
2023-04-24T15:42:46.042Z,2.00
2023-04-24T15:45:14.432Z,1.80
2023-04-24T15:47:42.271Z,2.00
2023-04-24T15:50:14.207Z,1.97
2023-04-24T15:52:43.530Z,1.70
2023-04-24T15:55:11.968Z,1.90
2023-04-24T15:57:39.887Z,1.80
2023-04-24T16:00:11.100Z,2.07
2023-04-24T16:02:41.664Z,1.83
2023-04-24T16:05:09.731Z,1.60
2023-04-24T16:07:39.383Z,2.27
2023-04-24T16:10:07.490Z,2.13
2023-04-24T16:12:35.205Z,1.70
2023-04-24T16:15:03.573Z,2.43
2023-04-24T16:17:32.697Z,2.20
2023-04-24T16:20:00.375Z,2.93
2023-04-24T16:22:28.060Z,3.10
2023-04-24T16:24:56.830Z,2.30
2023-04-24T16:27:25.321Z,2.47
2023-04-24T16:29:54.123Z,1.80
2023-04-24T16:32:23.320Z,1.90
2023-04-24T16:34:52.608Z,2.80
2023-04-24T16:37:21.370Z,2.50
2023-04-24T16:39:49.018Z,2.00
2023-04-24T16:42:17.243Z,2.20
2023-04-24T16:44:45.186Z,2.17
2023-04-24T16:47:14.155Z,1.90
2023-04-24T16:49:41.959Z,2.20
2023-04-24T16:52:12.114Z,1.97
2023-04-24T16:54:39.885Z,1.63
2023-04-24T16:57:08.423Z,1.80
2023-04-24T16:59:36.752Z,1.80
2023-04-24T17:02:04.545Z,3.33
2023-04-24T17:04:35.476Z,1.40
2023-04-24T17:07:03.828Z,1.73
2023-04-24T17:09:32.955Z,2.37
2023-04-24T17:12:02.295Z,1.40
2023-04-24T17:14:29.998Z,1.87
2023-04-24T17:16:57.954Z,2.13
2023-04-24T17:19:27.114Z,2.10
2023-04-24T17:21:54.768Z,2.70
2023-04-24T17:24:22.536Z,2.40
2023-04-24T17:26:52.009Z,2.30
2023-04-24T17:29:20.837Z,2.10
2023-04-24T17:31:48.454Z,3.47
2023-04-24T17:34:16.361Z,2.60
2023-04-24T17:36:44.001Z,2.43
2023-04-24T17:39:12.105Z,1.83
2023-04-24T17:41:39.745Z,2.60
2023-04-24T17:44:08.932Z,3.30
2023-04-24T17:46:36.964Z,2.30
2023-04-24T17:49:04.729Z,3.07
2023-04-24T17:51:32.672Z,1.90
2023-04-24T17:54:00.276Z,2.20
2023-04-24T17:56:28.955Z,1.93
2023-04-24T17:58:58.165Z,1.77
2023-04-24T18:01:29.156Z,1.80
2023-04-24T18:03:57.337Z,2.70
2023-04-24T18:06:25.627Z,2.07
2023-04-24T18:08:53.586Z,2.83
2023-04-24T18:11:21.379Z,3.80
2023-04-24T18:13:49.625Z,2.77
2023-04-24T18:16:18.066Z,2.83
2023-04-24T18:18:47.496Z,3.60
2023-04-24T18:21:15.366Z,3.03
2023-04-24T18:24:06.291Z,2.90
2023-04-24T18:26:33.912Z,2.47
2023-04-24T18:29:01.580Z,2.47
2023-04-24T18:31:32.025Z,2.10
2023-04-24T18:34:01.166Z,2.17
2023-04-24T18:36:29.752Z,2.00
2023-04-24T18:38:57.461Z,2.30
2023-04-24T18:41:25.095Z,1.70
2023-04-24T18:43:52.899Z,1.10
2023-04-24T18:46:20.715Z,1.10
2023-04-24T18:48:48.690Z,1.17
2023-04-24T18:51:17.821Z,1.37
2023-04-24T18:53:45.835Z,2.50
2023-04-24T18:56:13.703Z,1.50
2023-04-24T18:58:44.231Z,1.97
2023-04-24T19:01:13.841Z,1.83
2023-04-24T19:03:41.591Z,2.40
2023-04-24T19:06:09.596Z,2.57
2023-04-24T19:08:39.369Z,2.00
2023-04-24T19:11:07.171Z,2.20
2023-04-24T19:13:34.932Z,1.80
2023-04-24T19:16:02.850Z,2.73
2023-04-24T19:18:30.578Z,2.03
2023-04-24T19:20:58.944Z,3.63
2023-04-24T19:23:27.159Z,2.30
2023-04-24T19:25:56.363Z,2.70
2023-04-24T19:28:24.403Z,4.00
2023-04-24T19:30:52.333Z,2.13
2023-04-24T19:33:19.978Z,1.50
2023-04-24T19:35:49.626Z,1.87
2023-04-24T19:38:17.537Z,2.00
2023-04-24T19:40:45.509Z,1.60
2023-04-24T19:43:14.492Z,1.60
2023-04-24T19:45:42.378Z,2.23
2023-04-24T19:48:10.078Z,1.87
2023-04-24T19:50:37.957Z,1.93
2023-04-24T19:53:06.462Z,1.80
2023-04-24T19:55:34.324Z,3.13
2023-04-24T19:58:01.995Z,2.57
2023-04-24T20:00:31.205Z,2.53
2023-04-24T20:02:59.405Z,2.33
2023-04-24T20:05:27.784Z,2.10
2023-04-24T20:07:55.549Z,2.63
2023-04-24T20:10:23.688Z,2.37
2023-04-24T20:12:51.674Z,2.40
2023-04-24T20:15:19.548Z,2.90
2023-04-24T20:17:49.024Z,2.47
2023-04-24T20:20:16.679Z,2.87
2023-04-24T20:22:44.352Z,2.97
2023-04-24T20:25:12.963Z,2.57
2023-04-24T20:27:41.707Z,2.40
2023-04-24T20:30:13.161Z,2.57
2023-04-24T20:32:41.530Z,2.33
2023-04-24T20:35:12.296Z,3.03
2023-04-24T20:37:40.406Z,3.10
2023-04-24T20:40:09.825Z,2.40
2023-04-24T20:42:38.388Z,3.10
2023-04-24T20:45:06.801Z,3.07
2023-04-24T20:47:35.456Z,3.10
2023-04-24T20:50:04.337Z,2.70
2023-04-24T20:52:33.572Z,3.33
2023-04-24T20:55:01.500Z,5.33
2023-04-24T20:57:29.573Z,3.50
2023-04-24T20:59:57.217Z,5.40
2023-04-24T21:02:25.307Z,4.03
2023-04-24T21:04:53.168Z,4.53
2023-04-24T21:07:20.869Z,4.10
2023-04-24T21:09:49.982Z,3.07
2023-04-24T21:12:17.955Z,3.33
2023-04-24T21:14:45.602Z,3.03
2023-04-24T21:17:14.201Z,2.80
2023-04-24T21:19:41.863Z,3.33
2023-04-24T21:22:10.174Z,3.10
2023-04-24T21:24:38.163Z,3.60
2023-04-24T21:27:09.103Z,3.73
2023-04-24T21:29:37.066Z,3.30
2023-04-24T21:32:06.005Z,4.13
2023-04-24T21:34:33.755Z,3.83
2023-04-24T21:37:01.551Z,3.87
2023-04-24T21:39:29.395Z,4.23
2023-04-24T21:41:57.810Z,3.90
2023-04-24T21:44:27.150Z,3.80
2023-04-24T21:46:55.150Z,3.90
2023-04-24T21:49:23.134Z,4.03
2023-04-24T21:51:51.376Z,5.20
2023-04-24T21:54:21.651Z,4.57
2023-04-24T21:56:49.397Z,4.63
2023-04-24T21:59:18.045Z,3.97
2023-04-24T22:01:47.433Z,4.60
2023-04-24T22:04:15.304Z,4.63
2023-04-24T22:06:43.537Z,4.57
2023-04-24T22:09:11.313Z,5.57
2023-04-24T22:11:39.092Z,5.40
2023-04-24T22:14:07.356Z,5.30
2023-04-24T22:16:35.425Z,4.80
2023-04-24T22:19:05.075Z,5.70
2023-04-24T22:21:33.335Z,4.60
2023-04-24T22:24:01.047Z,4.10
2023-04-24T22:26:28.763Z,4.17
2023-04-24T22:28:56.553Z,4.60
2023-04-24T22:31:24.743Z,4.27
2023-04-24T22:33:52.505Z,4.90
2023-04-24T22:36:22.454Z,4.90
2023-04-24T22:38:50.597Z,5.23
2023-04-24T22:41:18.242Z,5.17
2023-04-24T22:43:46.197Z,5.10
2023-04-24T22:46:14.250Z,5.60
2023-04-24T22:48:41.971Z,4.90
2023-04-24T22:51:10.123Z,4.80
2023-04-24T22:53:39.459Z,4.63
2023-04-24T22:56:07.692Z,5.00
2023-04-24T22:58:35.919Z,5.20
2023-04-24T23:01:04.289Z,4.57
2023-04-24T23:03:33.661Z,5.03
2023-04-24T23:06:01.740Z,4.80
2023-04-24T23:08:31.735Z,5.27
2023-04-24T23:11:00.968Z,4.70
2023-04-24T23:13:29.244Z,4.30
2023-04-24T23:15:57.228Z,3.77
2023-04-24T23:18:25.033Z,4.10
2023-04-24T23:20:52.886Z,3.90
2023-04-24T23:23:20.765Z,3.80
2023-04-24T23:25:48.714Z,3.63
2023-04-24T23:28:18.217Z,3.83
2023-04-24T23:30:46.387Z,4.00
2023-04-24T23:33:14.152Z,4.10
2023-04-24T23:35:41.870Z,4.77
2023-04-24T23:38:10.389Z,4.20
2023-04-24T23:40:38.157Z,4.07
2023-04-24T23:43:08.040Z,3.90
2023-04-24T23:45:38.561Z,3.70
2023-04-24T23:48:06.462Z,3.50
2023-04-24T23:50:34.601Z,3.60
2023-04-24T23:53:02.846Z,3.50
2023-04-24T23:55:30.606Z,3.43
2023-04-24T23:57:58.694Z,3.63
